Time;durP1;ratioP1;P1;durP2;ratioP2;P2;SDS_P1;SDS_P2;PMS_P1;PMS_P2;Temp;Humidity;BMP_temperature;BMP_pressure;BME280_temperature;BME280_humidity;BME280_pressure;Samples;Min_cycle;Max_cycle;Signal;HPM_P1;HPM_P2
2022/03/29 00:02:05;;;;;;;39.15;24.63;;;;;;;29.58;67.40;100988.00;4998897;28;67564;-36
2022/03/29 00:04:37;;;;;;;35.05;25.08;;;;;;;29.63;67.47;100982.84;4990925;28;70103;-35
2022/03/29 00:07:08;;;;;;;37.70;26.20;;;;;;;29.67;67.39;100996.78;4998926;28;65896;-36
2022/03/29 00:09:39;;;;;;;28.48;25.30;;;;;;;29.75;68.63;100997.38;5000024;28;71294;-36
2022/03/29 00:12:10;;;;;;;37.15;26.98;;;;;;;29.76;69.14;100993.66;5005125;28;66558;-36
2022/03/29 00:14:41;;;;;;;36.47;27.95;;;;;;;29.85;69.68;100996.97;4993799;28;70187;-35
2022/03/29 00:17:12;;;;;;;40.97;28.17;;;;;;;29.89;69.96;100998.19;4997057;28;66098;-36
2022/03/29 00:19:44;;;;;;;41.58;28.63;;;;;;;29.87;69.26;100988.66;4998094;28;70519;-36
2022/03/29 00:22:14;;;;;;;44.47;29.25;;;;;;;29.71;69.94;100958.31;4998047;28;66766;-36
2022/03/29 00:24:45;;;;;;;46.13;28.98;;;;;;;30.01;70.35;100998.41;4997451;28;70534;-35
2022/03/29 00:27:16;;;;;;;41.70;29.10;;;;;;;30.04;70.52;101016.91;5005459;28;66319;-36
2022/03/29 00:29:48;;;;;;;39.07;25.70;;;;;;;30.16;66.28;101014.38;5012334;28;70544;-35
2022/03/29 00:32:19;;;;;;;34.65;24.63;;;;;;;30.16;65.17;100998.97;5015794;28;65307;-34
2022/03/29 00:34:50;;;;;;;33.00;24.50;;;;;;;30.25;65.19;101007.72;4995778;28;69851;-34
2022/03/29 00:37:21;;;;;;;32.67;23.73;;;;;;;30.36;64.38;101019.75;5010695;28;66227;-35
2022/03/29 00:39:52;;;;;;;25.30;22.38;;;;;;;30.35;63.81;101012.69;4997344;28;69750;-35
2022/03/29 00:42:22;;;;;;;33.75;23.77;;;;;;;30.38;64.02;101015.78;5014535;28;66384;-35
2022/03/29 00:44:55;;;;;;;30.08;22.27;;;;;;;30.45;63.66;101024.72;5014158;28;70475;-35
2022/03/29 00:47:26;;;;;;;25.27;22.15;;;;;;;30.47;63.45;101027.22;5016894;28;66531;-35
2022/03/29 00:49:57;;;;;;;30.00;23.30;;;;;;;30.56;63.24;101031.31;5019266;28;69689;-35
2022/03/29 00:52:28;;;;;;;29.33;21.80;;;;;;;30.59;62.89;101030.06;5019108;28;66633;-34
2022/03/29 00:55:00;;;;;;;27.08;21.60;;;;;;;30.59;62.81;101022.81;5018612;28;70468;-35
2022/03/29 00:57:33;;;;;;;28.25;21.40;;;;;;;30.64;62.83;101028.38;4999239;28;65635;-35
2022/03/29 01:00:06;;;;;;;27.42;21.27;;;;;;;30.69;62.10;101031.28;5015120;28;70136;-35
2022/03/29 01:02:38;;;;;;;25.27;20.85;;;;;;;30.71;62.22;101039.19;5013276;28;66275;-35
2022/03/29 01:05:09;;;;;;;31.43;21.43;;;;;;;30.71;62.09;101036.50;5019396;28;69908;-35
2022/03/29 01:07:40;;;;;;;22.50;19.90;;;;;;;30.75;62.15;101050.44;5016229;28;65152;-34
2022/03/29 01:10:11;;;;;;;24.83;20.47;;;;;;;30.76;61.53;101050.22;5019207;28;69883;-35
2022/03/29 01:12:42;;;;;;;31.02;21.27;;;;;;;30.69;61.62;101031.28;5018305;28;66644;-36
2022/03/29 01:15:13;;;;;;;27.25;20.58;;;;;;;30.84;61.39;101054.56;5016334;28;70333;-35
2022/03/29 01:17:46;;;;;;;27.33;20.48;;;;;;;30.82;61.46;101040.44;5019262;28;66801;-34
2022/03/29 01:20:22;;;;;;;22.77;20.17;;;;;;;30.57;61.06;101000.53;5019130;28;69628;-34
2022/03/29 01:22:55;;;;;;;22.33;19.52;;;;;;;30.88;61.26;101047.69;5018591;28;66533;-34
2022/03/29 01:25:27;;;;;;;26.20;20.20;;;;;;;30.92;60.58;101063.31;5011599;28;70459;-35
2022/03/29 01:27:59;;;;;;;22.08;19.67;;;;;;;30.92;60.93;101057.03;5002880;28;65732;-35
2022/03/29 01:30:31;;;;;;;25.45;19.75;;;;;;;30.95;60.88;101051.19;5018580;28;69882;-35
2022/03/29 01:33:06;;;;;;;29.17;19.33;;;;;;;30.93;61.33;101058.72;5017781;28;65149;-35
2022/03/29 01:35:37;;;;;;;23.60;19.35;;;;;;;30.98;60.77;101067.03;5012768;28;70546;-35
2022/03/29 01:38:10;;;;;;;21.63;19.30;;;;;;;30.98;61.36;101066.16;5014313;28;67152;-34
2022/03/29 01:40:41;;;;;;;22.52;19.35;;;;;;;31.02;60.75;101057.41;5012325;28;70287;-34
2022/03/29 01:43:12;;;;;;;22.33;18.88;;;;;;;31.04;60.95;101060.72;5001057;28;66079;-36
2022/03/29 01:45:43;;;;;;;22.95;19.05;;;;;;;31.07;60.48;101060.28;5019377;28;69559;-35
2022/03/29 01:48:13;;;;;;;21.23;18.33;;;;;;;31.01;60.59;101055.75;4999982;28;65504;-35
2022/03/29 01:50:45;;;;;;;24.70;18.33;;;;;;;31.01;60.28;101052.19;4981444;28;70181;-34
2022/03/29 01:53:24;;;;;;;20.00;17.88;;;;;;;31.11;60.36;101061.50;5001205;28;66270;-36
2022/03/29 01:55:59;;;;;;;20.10;18.13;;;;;;;31.16;60.48;101067.09;5013511;28;70395;-35
2022/03/29 01:58:31;;;;;;;21.00;18.38;;;;;;;31.18;60.16;101066.91;4992752;28;65298;-34
2022/03/29 02:01:01;;;;;;;18.47;16.67;;;;;;;31.20;60.60;101069.38;4998009;28;69184;-34
2022/03/29 02:03:33;;;;;;;21.23;17.98;;;;;;;31.20;59.91;101074.78;5019461;28;66435;-35
2022/03/29 02:06:04;;;;;;;19.02;17.13;;;;;;;31.26;60.05;101073.91;5018270;28;70151;-35
2022/03/29 02:08:35;;;;;;;18.52;16.50;;;;;;;31.27;59.73;101064.75;4995417;28;65244;-35
2022/03/29 02:11:07;;;;;;;19.67;17.67;;;;;;;31.26;59.59;101063.06;4997064;28;70663;-35
2022/03/29 02:13:38;;;;;;;18.73;16.80;;;;;;;31.30;59.71;101075.16;4998413;28;65508;-34
2022/03/29 02:16:09;;;;;;;17.60;15.98;;;;;;;31.33;59.60;101072.00;5016046;28;70058;-34
2022/03/29 02:18:40;;;;;;;18.20;16.40;;;;;;;31.38;59.57;101072.22;5018849;28;66303;-34
2022/03/29 02:21:14;;;;;;;17.95;16.10;;;;;;;31.42;59.52;101069.88;4998692;28;69977;-34
2022/03/29 02:23:46;;;;;;;17.40;15.65;;;;;;;31.38;58.83;101061.38;4981720;28;64588;-34
2022/03/29 02:26:17;;;;;;;18.58;16.63;;;;;;;31.40;58.75;101059.28;5009666;28;70019;-34
2022/03/29 02:28:48;;;;;;;17.63;15.75;;;;;;;31.41;59.04;101055.50;5010259;28;66427;-35
2022/03/29 02:31:18;;;;;;;19.63;15.45;;;;;;;31.52;58.49;101064.81;5011440;28;69643;-35
2022/03/29 02:33:50;;;;;;;16.63;15.00;;;;;;;31.54;58.20;101060.84;5020890;28;65579;-34
2022/03/29 02:36:20;;;;;;;16.92;15.32;;;;;;;31.55;58.13;101067.09;5020732;28;70285;-37
2022/03/29 02:38:51;;;;;;;16.92;15.27;;;;;;;31.53;58.33;101056.44;5021268;28;66486;-37
2022/03/29 02:41:21;;;;;;;17.98;15.35;;;;;;;31.59;58.20;101058.31;4995927;28;69923;-36
2022/03/29 02:43:52;;;;;;;17.17;15.40;;;;;;;31.59;58.01;101039.31;5002026;28;65904;-35
2022/03/29 02:46:24;;;;;;;;;;;;;;;31.33;58.70;101059.28;5003821;28;70063;-38
2022/03/29 02:48:54;;;;;;;16.42;14.82;;;;;;;31.66;57.77;101057.41;5003733;28;65896;-34
2022/03/29 02:51:25;;;;;;;16.98;15.43;;;;;;;31.69;57.82;101056.97;5006581;28;69468;-34
2022/03/29 02:53:56;;;;;;;16.50;14.95;;;;;;;31.77;57.96;101062.94;5000538;28;65744;-36
2022/03/29 02:56:28;;;;;;;16.55;15.07;;;;;;;31.75;57.53;101048.75;5021026;28;69015;-36
2022/03/29 02:58:58;;;;;;;15.88;14.57;;;;;;;31.81;57.39;101055.16;4999857;28;64853;-35
2022/03/29 03:01:30;;;;;;;16.60;14.98;;;;;;;31.86;57.73;101051.81;5000828;28;69146;-34
2022/03/29 03:04:02;;;;;;;15.85;13.95;;;;;;;31.89;57.23;101046.75;5018279;28;65705;-35
2022/03/29 03:06:33;;;;;;;15.88;14.38;;;;;;;31.91;57.32;101055.53;5002064;28;68952;-35
2022/03/29 03:09:04;;;;;;;15.63;14.13;;;;;;;31.92;57.14;101035.47;5012643;28;65693;-35
2022/03/29 03:11:38;;;;;;;15.00;13.75;;;;;;;31.98;57.02;101037.31;5021525;28;69705;-35
2022/03/29 03:14:09;;;;;;;15.63;14.02;;;;;;;31.98;57.06;101040.03;5018486;28;65611;-35
2022/03/29 03:16:39;;;;;;;14.90;13.43;;;;;;;32.02;56.95;101038.53;5019848;28;70135;-35
2022/03/29 03:19:30;;;;;;;15.70;14.30;;;;;;;32.04;56.80;101039.13;4999542;28;66276;-35
2022/03/29 03:22:01;;;;;;;15.95;14.15;;;;;;;32.03;56.52;101032.03;4982385;28;70404;-35
2022/03/29 03:24:32;;;;;;;14.98;13.85;;;;;;;32.08;56.29;101034.09;4985763;28;66148;-33
2022/03/29 03:27:03;;;;;;;18.60;13.80;;;;;;;32.16;56.52;101030.25;5011759;28;70279;-35
2022/03/29 03:29:34;;;;;;;14.30;13.00;;;;;;;31.92;56.56;100985.81;5014203;28;66058;-35
2022/03/29 03:32:05;;;;;;;15.43;14.02;;;;;;;32.15;56.11;101012.28;4999729;28;69872;-35
2022/03/29 03:34:36;;;;;;;16.02;14.52;;;;;;;32.12;56.42;101001.88;5000172;28;65175;-35
2022/03/29 03:37:07;;;;;;;15.55;14.18;;;;;;;32.22;56.19;101013.06;4999835;28;70085;-35
2022/03/29 03:39:38;;;;;;;15.50;14.15;;;;;;;32.23;55.97;100998.41;4997578;28;65991;-35
2022/03/29 03:42:12;;;;;;;14.63;12.98;;;;;;;32.29;56.02;101002.97;5018726;28;70328;-36
2022/03/29 03:44:42;;;;;;;15.25;13.73;;;;;;;32.29;56.08;100997.53;5019721;28;66346;-35
2022/03/29 03:47:13;;;;;;;17.95;13.57;;;;;;;32.32;55.93;100986.22;5018738;28;69627;-35
2022/03/29 03:49:43;;;;;;;14.77;13.35;;;;;;;32.35;56.03;100991.19;5020714;28;66309;-35
2022/03/29 03:52:14;;;;;;;13.95;12.95;;;;;;;32.37;55.60;100994.47;5001446;28;68755;-35
2022/03/29 03:54:46;;;;;;;14.20;13.13;;;;;;;32.40;55.45;100988.63;4995677;28;65678;-35
2022/03/29 03:57:17;;;;;;;13.57;12.37;;;;;;;32.40;55.40;100983.19;4999919;28;69879;-35
2022/03/29 03:59:50;;;;;;;13.57;12.43;;;;;;;32.43;56.15;100979.16;5019594;28;65142;-35
2022/03/29 04:02:20;;;;;;;14.50;13.15;;;;;;;32.45;55.95;100979.78;5010844;28;69909;-35
2022/03/29 04:04:52;;;;;;;13.80;12.68;;;;;;;32.45;55.48;100979.78;4994774;28;65807;-35
2022/03/29 04:07:23;;;;;;;16.60;12.30;;;;;;;32.46;55.49;100971.44;4993079;28;69780;-36
2022/03/29 04:09:54;;;;;;;14.57;13.18;;;;;;;32.43;55.19;100961.00;5020812;28;66365;-35
2022/03/29 04:12:24;;;;;;;13.25;12.10;;;;;;;32.52;55.53;100971.59;5012427;28;69622;-34
2022/03/29 04:14:55;;;;;;;13.38;12.32;;;;;;;32.40;55.33;100955.19;5018647;28;66002;-34
2022/03/29 04:17:26;;;;;;;14.73;12.50;;;;;;;32.54;55.02;100964.00;5019608;28;71291;-35
2022/03/29 04:19:57;;;;;;;13.75;12.57;;;;;;;32.53;55.53;100965.91;5020042;28;66631;-35
2022/03/29 04:22:27;;;;;;;14.05;12.93;;;;;;;32.54;55.29;100956.72;4997527;28;70068;-35
2022/03/29 04:24:58;;;;;;;13.43;12.43;;;;;;;32.55;55.09;100946.69;4998260;28;65563;-34
2022/03/29 04:27:29;;;;;;;14.20;12.90;;;;;;;32.59;55.05;100945.16;5017570;28;69444;-34
2022/03/29 04:29:59;;;;;;;13.25;12.27;;;;;;;32.53;55.05;100922.47;4996743;28;65985;-35
2022/03/29 04:32:30;;;;;;;13.82;12.38;;;;;;;32.62;55.09;100936.53;4998794;28;70426;-35
2022/03/29 04:35:00;;;;;;;14.55;12.60;;;;;;;32.53;54.83;100921.63;5015606;28;64135;-34
2022/03/29 04:37:31;;;;;;;13.45;12.00;;;;;;;32.63;54.76;100924.63;5018813;28;70287;-34
2022/03/29 04:40:06;;;;;;;14.40;13.20;;;;;;;32.66;54.78;100922.28;5019133;28;65481;-35
2022/03/29 04:42:47;;;;;;;14.32;12.88;;;;;;;32.65;54.59;100919.78;5019877;28;68963;-35
2022/03/29 04:45:19;;;;;;;13.05;11.95;;;;;;;32.69;54.77;100910.94;5019402;28;65404;-35
2022/03/29 04:47:50;;;;;;;12.93;11.93;;;;;;;32.71;54.94;100889.81;5019638;28;70369;-34
2022/03/29 04:50:21;;;;;;;12.95;11.85;;;;;;;32.76;54.61;100891.00;5017079;28;65577;-34
2022/03/29 04:52:52;;;;;;;11.77;10.93;;;;;;;32.78;54.72;100892.41;5019459;28;69974;-35
2022/03/29 04:55:22;;;;;;;12.65;11.60;;;;;;;32.80;54.48;100884.06;4982139;28;67230;-34
2022/03/29 04:57:53;;;;;;;11.97;11.10;;;;;;;32.80;54.42;100868.56;5012436;28;69115;-34
2022/03/29 05:00:25;;;;;;;12.02;11.05;;;;;;;32.79;54.27;100864.22;5019469;28;66462;-34
2022/03/29 05:02:56;;;;;;;13.55;11.88;;;;;;;32.80;54.30;100863.16;5019739;28;70482;-34
2022/03/29 05:05:27;;;;;;;12.07;11.02;;;;;;;32.86;54.50;100864.09;4999091;28;65892;-34
2022/03/29 05:07:58;;;;;;;11.45;10.60;;;;;;;32.81;54.23;100843.06;5015340;28;69259;-34
2022/03/29 05:10:30;;;;;;;12.23;11.23;;;;;;;32.88;54.14;100849.22;5017910;28;66087;-34
2022/03/29 05:13:00;;;;;;;12.50;11.60;;;;;;;32.87;54.06;100847.53;4990875;28;69289;-34
2022/03/29 05:15:31;;;;;;;11.45;10.63;;;;;;;32.81;54.39;100821.31;5013095;28;66493;-35
2022/03/29 05:18:02;;;;;;;11.73;10.93;;;;;;;32.92;54.18;100828.66;4981177;28;69258;-35
2022/03/29 05:20:33;;;;;;;11.80;10.93;;;;;;;32.93;54.25;100821.31;5018748;28;67320;-35
2022/03/29 05:23:06;;;;;;;12.30;11.07;;;;;;;32.98;54.13;100820.63;5017812;28;69079;-35
2022/03/29 05:25:37;;;;;;;11.10;10.32;;;;;;;33.00;53.94;100813.91;4998416;28;66503;-34
2022/03/29 05:28:09;;;;;;;11.73;10.75;;;;;;;32.92;54.02;100808.81;4996475;28;70451;-35
2022/03/29 05:30:39;;;;;;;11.40;10.45;;;;;;;33.01;54.07;100803.88;4979393;28;64532;-35
2022/03/29 05:33:15;;;;;;;11.05;10.20;;;;;;;33.00;53.84;100794.91;4978854;28;69960;-35
2022/03/29 05:35:46;;;;;;;11.55;10.52;;;;;;;33.11;53.98;100793.25;4999418;28;64645;-36
2022/03/29 05:38:17;;;;;;;11.00;10.30;;;;;;;33.10;53.87;100783.44;4979970;28;70071;-35
2022/03/29 05:40:47;;;;;;;11.55;10.45;;;;;;;33.15;53.67;100783.53;4980103;28;65577;-35
2022/03/29 05:43:18;;;;;;;11.45;10.65;;;;;;;33.17;53.66;100764.28;4998159;28;70566;-35
2022/03/29 05:48:51;;;;;;;11.32;10.52;;;;;;;32.89;53.65;100715.00;4997834;28;65669;-35
2022/03/29 05:48:52;;;;;;;11.45;10.40;;;;;;;33.19;53.81;100760.25;4999600;28;70352;-35
2022/03/29 05:51:27;;;;;;;11.05;10.35;;;;;;;33.24;53.55;100757.66;4996535;28;66615;-35
2022/03/29 05:54:00;;;;;;;10.77;10.00;;;;;;;33.26;53.51;100758.22;4998407;28;69922;-35
2022/03/29 05:56:31;;;;;;;11.82;10.93;;;;;;;33.10;53.48;100726.38;4997490;28;65024;-35
2022/03/29 05:59:02;;;;;;;11.50;10.60;;;;;;;33.23;53.34;100725.28;4991649;28;70728;-35
2022/03/29 06:01:33;;;;;;;10.67;9.77;;;;;;;33.32;53.56;100735.53;4994005;28;66637;-35
2022/03/29 06:04:06;;;;;;;11.25;10.20;;;;;;;33.35;53.26;100724.19;5000742;28;69600;-35
2022/03/29 06:06:39;;;;;;;10.93;9.88;;;;;;;33.34;53.73;100700.75;4985518;28;65843;-35
2022/03/29 06:09:10;;;;;;;11.73;10.85;;;;;;;33.41;53.05;100713.41;5003085;28;70154;-35
2022/03/29 06:11:42;;;;;;;11.40;10.70;;;;;;;33.40;53.45;100704.41;5002037;28;66793;-35
2022/03/29 06:14:14;;;;;;;11.07;10.35;;;;;;;33.36;53.36;100693.19;4982751;28;69091;-35
2022/03/29 06:16:45;;;;;;;11.98;10.70;;;;;;;33.47;53.24;100699.66;5000746;28;66606;-35
2022/03/29 06:19:15;;;;;;;10.25;9.52;;;;;;;33.50;52.90;100695.63;5002029;28;70120;-34
2022/03/29 06:21:46;;;;;;;10.77;9.98;;;;;;;33.46;53.07;100672.69;4967556;28;65451;-35
2022/03/29 06:24:16;;;;;;;10.18;9.60;;;;;;;33.53;52.92;100690.56;5000321;28;70715;-34
2022/03/29 06:26:47;;;;;;;11.23;10.10;;;;;;;33.52;52.93;100663.59;5011318;28;65631;-35
2022/03/29 06:29:18;;;;;;;12.32;10.13;;;;;;;33.55;53.04;100654.97;5020249;28;70237;-35
2022/03/29 06:31:49;;;;;;;11.00;10.23;;;;;;;33.57;52.94;100661.81;5019776;28;66185;-35
2022/03/29 06:34:22;;;;;;;11.25;10.43;;;;;;;33.58;53.09;100639.00;5012851;28;68954;-35
2022/03/29 06:36:53;;;;;;;9.90;9.20;;;;;;;33.65;52.75;100641.53;5016568;28;66136;-35
2022/03/29 06:39:24;;;;;;;10.88;9.98;;;;;;;33.66;52.88;100636.94;4995429;28;70279;-35
2022/03/29 06:41:55;;;;;;;9.57;9.03;;;;;;;33.66;52.73;100626.88;5021182;28;68016;-35
2022/03/29 06:44:27;;;;;;;11.20;10.18;;;;;;;33.68;52.62;100627.44;5021193;28;69241;-35
2022/03/29 06:46:58;;;;;;;10.30;9.60;;;;;;;33.71;52.60;100615.25;5020416;28;66622;-36
2022/03/29 06:49:29;;;;;;;10.43;9.52;;;;;;;33.75;52.53;100619.16;5020909;28;69931;-35
2022/03/29 06:52:00;;;;;;;9.97;9.37;;;;;;;33.75;52.44;100614.53;5017133;28;66109;-36
2022/03/29 06:54:31;;;;;;;9.82;9.20;;;;;;;33.76;52.28;100610.72;5000076;28;68832;-34
2022/03/29 06:57:02;;;;;;;9.05;8.45;;;;;;;33.74;52.05;100598.44;5017432;28;65865;-34
2022/03/29 06:59:35;;;;;;;9.93;9.23;;;;;;;33.84;52.69;100611.41;5019732;28;70584;-34
2022/03/29 07:02:15;;;;;;;9.50;8.98;;;;;;;33.79;52.43;100590.38;5020004;28;65345;-34
2022/03/29 07:04:46;;;;;;;9.98;8.93;;;;;;;33.89;52.22;100592.44;5015370;28;68952;-34
2022/03/29 07:07:17;;;;;;;9.68;9.05;;;;;;;33.93;52.07;100571.81;5001823;28;66004;-34
2022/03/29 07:12:56;;;;;;;10.25;9.52;;;;;;;33.85;51.98;100562.19;5019794;28;65641;-34
2022/03/29 07:15:28;;;;;;;9.40;8.90;;;;;;;33.92;52.03;100548.41;5002064;28;69465;-35
2022/03/29 07:17:59;;;;;;;9.43;8.73;;;;;;;33.95;52.18;100547.91;4999162;28;65628;-35
2022/03/29 07:20:30;;;;;;;10.30;9.60;;;;;;;33.87;51.89;100523.84;5021363;28;69791;-35
2022/03/29 07:23:02;;;;;;;9.45;8.55;;;;;;;33.99;52.11;100530.00;5020441;28;66566;-34
2022/03/29 07:25:33;;;;;;;9.95;9.27;;;;;;;33.98;51.92;100523.72;5000705;28;69741;-35
2022/03/29 07:28:05;;;;;;;9.77;9.15;;;;;;;34.01;51.75;100525.94;5000642;28;64971;-35
2022/03/29 07:30:35;;;;;;;9.40;8.70;;;;;;;34.01;51.91;100522.41;4997709;28;69858;-34
2022/03/29 07:33:07;;;;;;;9.75;9.15;;;;;;;33.94;51.83;100508.16;5001786;28;65194;-35
2022/03/29 07:35:38;;;;;;;10.07;9.32;;;;;;;34.01;52.06;100508.78;5000944;28;69155;-35
2022/03/29 07:38:09;;;;;;;10.50;8.80;;;;;;;34.03;51.99;100514.81;4999824;28;66308;-35
2022/03/29 07:40:42;;;;;;;9.57;8.85;;;;;;;34.04;51.66;100524.63;5001017;28;68952;-35
2022/03/29 07:43:25;;;;;;;9.18;8.63;;;;;;;34.03;51.85;100503.94;4995156;28;66070;-35
2022/03/29 07:45:56;;;;;;;9.95;9.25;;;;;;;33.90;51.61;100468.91;4995348;28;69476;-35
2022/03/29 07:48:26;;;;;;;10.03;9.33;;;;;;;34.03;51.84;100493.88;5001085;28;66384;-35
2022/03/29 07:51:18;;;;;;;9.48;8.88;;;;;;;34.06;51.58;100502.66;4999643;28;70159;-35
2022/03/29 07:53:49;;;;;;;10.25;9.40;;;;;;;33.93;51.66;100469.22;5000504;28;65900;-35
2022/03/29 07:56:19;;;;;;;8.87;8.27;;;;;;;34.03;51.82;100490.31;4997435;28;69692;-36
2022/03/29 07:58:50;;;;;;;9.63;9.02;;;;;;;34.02;52.01;100477.81;4994882;28;64895;-34
2022/03/29 08:01:21;;;;;;;9.48;8.93;;;;;;;34.04;51.99;100470.19;5000100;28;69702;-34
2022/03/29 08:03:52;;;;;;;10.75;10.02;;;;;;;34.00;52.07;100464.44;4994457;28;65361;-35
2022/03/29 08:06:23;;;;;;;10.55;9.65;;;;;;;34.04;52.20;100470.19;4992854;28;69997;-35
2022/03/29 08:08:54;;;;;;;10.27;9.52;;;;;;;34.03;52.25;100463.94;5001467;28;65336;-35
2022/03/29 08:11:25;;;;;;;9.75;9.15;;;;;;;34.02;52.43;100472.38;4981634;28;69927;-34
2022/03/29 08:13:56;;;;;;;11.30;10.35;;;;;;;33.98;52.57;100454.88;5001262;28;65084;-34
2022/03/29 08:16:28;;;;;;;10.75;9.85;;;;;;;34.02;52.99;100440.53;5004266;28;70035;-35
2022/03/29 08:18:59;;;;;;;11.63;10.68;;;;;;;33.99;53.18;100441.03;4998678;28;66308;-34
2022/03/29 08:21:49;;;;;;;14.32;10.15;;;;;;;33.99;53.37;100451.06;4999354;28;69592;-34
2022/03/29 08:24:23;;;;;;;10.57;9.77;;;;;;;33.93;53.46;100447.47;4997212;28;65459;-35
2022/03/29 08:26:55;;;;;;;10.35;9.65;;;;;;;33.98;53.30;100465.75;5005307;28;70613;-35
2022/03/29 08:29:29;;;;;;;10.63;9.60;;;;;;;33.88;53.55;100438.41;4996409;28;65133;-35
2022/03/29 08:32:00;;;;;;;10.05;9.30;;;;;;;33.87;53.51;100442.22;4999443;28;70296;-35
2022/03/29 08:34:32;;;;;;;10.10;9.27;;;;;;;33.67;53.32;100440.84;4999299;28;65874;-33
2022/03/29 08:37:02;;;;;;;9.15;8.55;;;;;;;33.91;53.74;100503.22;4998755;28;69816;-35
2022/03/29 08:39:33;;;;;;;9.55;8.85;;;;;;;33.93;53.86;100522.81;5000244;28;66996;-35
2022/03/29 08:42:09;;;;;;;9.98;9.07;;;;;;;33.91;54.23;100514.13;4996575;28;68790;-34
2022/03/29 08:44:41;;;;;;;8.90;8.32;;;;;;;33.58;53.92;100472.28;4998343;28;66876;-34
2022/03/29 08:47:15;;;;;;;9.95;9.10;;;;;;;33.81;54.19;100521.03;4999599;28;70523;-35
2022/03/29 08:49:49;;;;;;;9.98;9.15;;;;;;;33.74;54.02;100514.97;4999429;28;65552;-35
2022/03/29 08:52:23;;;;;;;10.60;9.13;;;;;;;33.77;54.13;100538.13;4998840;28;69640;-35
2022/03/29 08:54:55;;;;;;;9.50;8.80;;;;;;;33.78;54.21;100551.47;5000430;28;65741;-35
2022/03/29 08:57:25;;;;;;;9.52;8.65;;;;;;;33.68;54.59;100545.03;4980892;28;70700;-35
2022/03/29 08:59:56;;;;;;;9.05;8.43;;;;;;;33.72;54.68;100574.22;4990772;28;65882;-39
2022/03/29 09:02:33;;;;;;;9.73;8.73;;;;;;;33.32;54.81;100518.06;4999588;28;69931;-34
2022/03/29 09:05:13;;;;;;;8.77;8.15;;;;;;;33.64;54.82;100550.16;4999595;28;66460;-34
2022/03/29 09:07:54;;;;;;;9.23;8.50;;;;;;;33.64;54.85;100550.16;4999251;28;69556;-35
2022/03/29 09:10:45;;;;;;;8.70;8.20;;;;;;;33.51;55.11;100558.59;4992615;28;65695;-34
2022/03/29 09:13:25;;;;;;;9.43;8.65;;;;;;;33.17;55.30;100509.63;4998580;28;69643;-34
2022/03/29 09:16:00;;;;;;;9.43;8.70;;;;;;;33.55;55.09;100559.78;4999832;28;66250;-34
2022/03/29 09:18:31;;;;;;;9.43;8.57;;;;;;;33.44;55.15;100545.16;4998799;28;70155;-37
2022/03/29 09:21:16;;;;;;;8.73;8.07;;;;;;;33.09;55.67;100501.88;4994376;28;67222;-35
2022/03/29 09:24:08;;;;;;;9.40;8.50;;;;;;;33.32;55.89;100550.69;4999106;28;70454;-34
2022/03/29 09:26:41;;;;;;;8.98;8.13;;;;;;;33.35;55.27;100544.75;5006479;28;66629;-35
2022/03/29 09:29:20;;;;;;;9.02;8.32;;;;;;;32.68;55.84;100458.44;4999448;28;69464;-35
2022/03/29 09:32:12;;;;;;;9.07;8.38;;;;;;;33.26;55.94;100564.41;5017608;28;65696;-35
2022/03/29 09:34:42;;;;;;;9.02;8.20;;;;;;;33.28;55.76;100565.81;4995052;28;69974;-34
2022/03/29 09:37:13;;;;;;;9.02;8.25;;;;;;;33.19;55.72;100550.97;5000699;28;66179;-35
2022/03/29 09:39:48;;;;;;;8.75;8.07;;;;;;;33.23;55.84;100557.56;5021296;28;68932;-35
2022/03/29 09:42:35;;;;;;;10.07;8.73;;;;;;;33.03;55.85;100532.72;4994101;28;65308;-35
2022/03/29 09:45:08;;;;;;;7.95;7.53;;;;;;;33.13;56.44;100533.75;5019349;28;70419;-35
2022/03/29 09:47:38;;;;;;;8.48;7.93;;;;;;;33.13;56.11;100522.06;5015011;28;67189;-34
2022/03/29 09:50:09;;;;;;;8.82;8.18;;;;;;;33.08;56.25;100521.97;5019448;28;69740;-35
2022/03/29 09:52:45;;;;;;;8.73;8.10;;;;;;;32.71;55.89;100476.16;5003585;28;65586;-35
2022/03/29 09:55:20;;;;;;;8.55;8.05;;;;;;;33.02;56.42;100533.81;5002564;28;69490;-34
2022/03/29 09:57:57;;;;;;;8.45;7.60;;;;;;;33.03;56.32;100546.31;5022637;28;66794;-34
2022/03/29 10:00:33;;;;;;;8.38;7.78;;;;;;;33.01;56.45;100551.16;5013189;28;69133;-34
2022/03/29 10:03:09;;;;;;;8.52;7.95;;;;;;;32.33;56.66;100447.69;5021868;28;66528;-35
2022/03/29 10:05:42;;;;;;;7.85;7.35;;;;;;;32.87;56.14;100531.56;5017624;28;68979;-34
2022/03/29 10:11:07;;;;;;;8.48;7.78;;;;;;;32.88;56.37;100528.63;5001761;28;69966;-34
2022/03/29 10:13:38;;;;;;;9.27;8.63;;;;;;;32.88;56.53;100544.13;5006965;28;65943;-35
2022/03/29 10:16:14;;;;;;;9.00;8.30;;;;;;;32.70;56.02;100521.47;4995286;28;69534;-34
2022/03/29 10:18:47;;;;;;;8.20;7.70;;;;;;;32.82;56.27;100540.47;5020558;28;66120;-35
2022/03/29 10:21:18;;;;;;;8.05;7.55;;;;;;;32.89;56.20;100552.00;5016318;28;70013;-34
2022/03/29 10:23:49;;;;;;;12.15;8.93;;;;;;;32.84;57.87;100562.78;5014140;28;66202;-36
2022/03/29 10:26:24;;;;;;;11.30;10.02;;;;;;;32.75;58.08;100555.25;4997373;28;69894;-35
2022/03/29 10:28:56;;;;;;;14.88;11.52;;;;;;;32.79;58.81;100568.13;5005950;28;66470;-35
2022/03/29 10:31:29;;;;;;;13.75;12.43;;;;;;;32.57;61.27;100586.09;5010874;28;69880;-37
2022/03/29 10:34:12;;;;;;;14.70;13.40;;;;;;;32.15;63.00;100578.94;5022497;28;66303;-36
2022/03/29 10:37:14;;;;;;;14.65;13.48;;;;;;;31.92;64.39;100596.00;5021997;28;69831;-35
2022/03/29 10:39:52;;;;;;;15.63;14.48;;;;;;;31.88;64.69;100610.25;5018739;28;65896;-35
2022/03/29 10:42:38;;;;;;;18.50;15.00;;;;;;;31.73;65.11;100618.81;5018037;28;69136;-36
2022/03/29 10:45:16;;;;;;;20.05;16.48;;;;;;;31.74;65.45;100620.50;4996979;28;66263;-35
2022/03/29 10:48:11;;;;;;;19.33;17.42;;;;;;;31.15;66.16;100557.94;5012278;28;70361;-35
2022/03/29 10:50:53;;;;;;;21.55;19.40;;;;;;;31.52;66.10;100631.03;5012474;28;65393;-36
2022/03/29 10:53:31;;;;;;;22.50;20.27;;;;;;;31.06;66.46;100564.72;5011643;28;69158;-35
2022/03/29 10:56:12;;;;;;;30.20;23.67;;;;;;;31.41;66.88;100632.66;5019828;28;66534;-37
2022/03/29 10:59:08;;;;;;;25.63;22.95;;;;;;;31.29;67.74;100637.16;5020423;28;69294;-36
2022/03/29 11:01:42;;;;;;;25.20;22.58;;;;;;;31.56;65.54;100641.16;5013767;28;66616;-37
2022/03/29 11:04:20;;;;;;;27.75;20.50;;;;;;;31.74;65.08;100647.59;5019395;28;70118;-35
2022/03/29 11:07:09;;;;;;;30.33;19.63;;;;;;;31.79;65.13;100647.75;4995403;28;66033;-36
2022/03/29 11:09:41;;;;;;;26.45;19.40;;;;;;;31.98;64.14;100649.34;5011205;28;70005;-36
2022/03/29 11:12:46;;;;;;;20.98;17.80;;;;;;;31.94;65.24;100653.56;5001363;28;65994;-36
2022/03/29 11:15:37;;;;;;;23.77;18.60;;;;;;;32.00;64.98;100660.78;4996658;28;69584;-36
2022/03/29 11:18:31;;;;;;;20.65;18.70;;;;;;;32.13;64.72;100672.50;4999083;28;65178;-35
2022/03/29 11:21:04;;;;;;;21.42;17.45;;;;;;;32.24;63.76;100674.38;4998068;28;70001;-34
2022/03/29 11:23:45;;;;;;;20.63;18.52;;;;;;;32.02;63.92;100633.44;5017773;28;65862;-36
2022/03/29 11:26:18;;;;;;;20.38;18.35;;;;;;;32.34;63.72;100690.91;5012195;28;70608;-35
2022/03/29 11:28:51;;;;;;;20.15;18.15;;;;;;;32.39;63.81;100701.88;5015393;28;66426;-36
2022/03/29 11:31:25;;;;;;;20.10;17.98;;;;;;;32.40;63.46;100698.13;5000796;28;69568;-36
2022/03/29 11:33:56;;;;;;;19.48;17.63;;;;;;;32.42;63.58;100697.88;5006301;28;66155;-35
2022/03/29 11:36:27;;;;;;;20.42;18.33;;;;;;;32.39;63.48;100699.16;4978238;28;69189;-36
2022/03/29 11:38:59;;;;;;;24.83;20.58;;;;;;;32.08;66.55;100713.06;4997026;28;65205;-36
2022/03/29 11:41:33;;;;;;;25.77;20.07;;;;;;;31.90;67.04;100717.47;4991860;28;70077;-36
2022/03/29 11:44:07;;;;;;;23.65;20.50;;;;;;;31.81;67.52;100724.25;5009055;28;66024;-36
2022/03/29 11:46:53;;;;;;;22.27;19.77;;;;;;;31.68;68.31;100730.72;5017142;28;70293;-35
2022/03/29 11:49:27;;;;;;;22.77;20.15;;;;;;;31.70;68.72;100731.28;5009556;28;66197;-39